This is the latest recevied weather packets stored in our database for station/object SQ5RTW-1. If no packets are shown the sender has not sent any weather packets the latest 10 day(s).
| Time | Temp. | Humidity | Pressure | Rain* | Wind** | Luminosity | Snow |
|---|---|---|---|---|---|---|---|
| 1777450222 | 7.22° C | 50% | 1030.7 hPa | - | - | - | - |
| 1777449321 | 10.56° C | 47% | 1030.7 hPa | - | - | - | - |
| 1777447789 | 13.89° C | 38% | 1030.4 hPa | - | - | - | - |
| 1777447773 | 14.44° C | 39% | 1030.4 hPa | - | - | - | - |
| 1777447748 | 12.22° C | 38% | 1030.5 hPa | - | - | - | - |
| 1777446847 | 8.33° C | 47% | 1030.4 hPa | - | - | - | - |
| 1777445946 | 9.44° C | 44% | 1030.3 hPa | - | - | - | - |
| 1777444144 | 7.22° C | 56% | 1030.2 hPa | - | - | - | - |
| 1777444128 | 7.78° C | 57% | 1030.2 hPa | - | - | - | - |
| 1777444103 | 5.56° C | 56% | 1030.2 hPa | - | - | - | - |
| 1777443202 | 6.11° C | 56% | 1030.2 hPa | - | - | - | - |
| 1777442301 | 4.44° C | 59% | 1030.3 hPa | - | - | - | - |
| 1777441400 | 5.56° C | 61% | 1030.2 hPa | - | - | - | - |
| 1777441384 | 6.67° C | 62% | 1030.1 hPa | - | - | - | - |
| 1777441359 | 4.44° C | 61% | 1030.2 hPa | - | - | - | - |
| 1777440458 | 3.33° C | 65% | 1030.1 hPa | - | - | - | - |
| 1777439557 | 2.78° C | 68% | 1030 hPa | - | - | - | - |
| 1777438657 | 3.33° C | 69% | 1030 hPa | - | - | - | - |
| 1777438640 | 4.44° C | 70% | 1029.9 hPa | - | - | - | - |
| 1777438615 | 2.22° C | 70% | 1030 hPa | - | - | - | - |
| 1777437714 | 1.11° C | 71% | 1029.9 hPa | - | - | - | - |
| 1777436814 | 0.56° C | 72% | 1029.7 hPa | - | - | - | - |
| 1777435913 | 0.56° C | 72% | 1029.6 hPa | - | - | - | - |
| 1777435011 | 1.67° C | 72% | 1029.5 hPa | - | - | - | - |
| 1777433167 | 1.67° C | 72% | 1029.4 hPa | - | - | - | - |
* Rain since midnight (hover to see other rain measurements)
** Current wind speed in m/s (hover to see current wind gust speed)